Time;durP1;ratioP1;P1;durP2;ratioP2;P2;SDS_P1;SDS_P2;PMS_P1;PMS_P2;Temp;Humidity;BMP_temperature;BMP_pressure;BME280_temperature;BME280_humidity;BME280_pressure;Samples;Min_cycle;Max_cycle;Signal;HPM_P1;HPM_P2
2022/01/10 00:02:20;;;;;;;1.27;1.27;;;2.40;99.90;;;;;;5074408;28;20208;-79
2022/01/10 00:04:46;;;;;;;0.70;0.70;;;2.40;99.90;;;;;;5075134;28;20627;-79
2022/01/10 00:07:13;;;;;;;0.73;0.73;;;2.40;99.90;;;;;;5074587;28;20237;-79
2022/01/10 00:09:40;;;;;;;3.28;1.30;;;2.40;99.90;;;;;;5074432;28;20193;-79
2022/01/10 00:12:08;;;;;;;0.40;0.40;;;2.40;99.90;;;;;;5074914;28;20198;-79
2022/01/10 00:14:34;;;;;;;0.90;0.90;;;2.30;99.90;;;;;;5074314;28;20675;-79
2022/01/10 00:17:03;;;;;;;1.85;1.75;;;2.30;99.90;;;;;;5074997;28;20597;-79
2022/01/10 00:19:30;;;;;;;0.93;0.93;;;2.30;99.90;;;;;;5073756;28;20209;-79
2022/01/10 00:21:57;;;;;;;3.50;3.20;;;2.30;99.90;;;;;;5074338;28;20193;-79
2022/01/10 00:24:24;;;;;;;0.60;0.57;;;2.30;99.90;;;;;;5074108;28;20221;-79
2022/01/10 00:26:51;;;;;;;0.40;0.40;;;2.30;99.90;;;;;;5074308;28;20237;-79
2022/01/10 00:29:18;;;;;;;0.60;0.60;;;2.30;99.90;;;;;;5074389;28;20667;-79
2022/01/10 00:31:44;;;;;;;3.53;2.15;;;2.30;99.90;;;;;;5073673;28;20190;-76
2022/01/10 00:34:12;;;;;;;0.85;0.70;;;2.20;99.90;;;;;;5074460;28;20201;-79
2022/01/10 00:36:39;;;;;;;0.55;0.55;;;2.30;99.90;;;;;;5073738;28;20228;-79
2022/01/10 00:39:06;;;;;;;1.90;1.80;;;2.30;99.90;;;;;;5072993;28;20563;-78
2022/01/10 00:41:33;;;;;;;0.95;0.88;;;2.20;99.90;;;;;;5073502;28;20190;-79
2022/01/10 00:44:01;;;;;;;2.00;1.90;;;2.20;99.90;;;;;;5073003;28;20715;-78
2022/01/10 00:46:28;;;;;;;0.50;0.50;;;2.20;99.90;;;;;;5072006;28;20216;-78
2022/01/10 00:48:55;;;;;;;0.40;0.30;;;2.20;99.90;;;;;;5072723;28;20571;-78
2022/01/10 00:51:23;;;;;;;0.50;0.40;;;2.10;99.90;;;;;;5073670;28;20194;-78
2022/01/10 00:53:52;;;;;;;6.30;5.78;;;2.10;99.90;;;;;;5072513;28;20185;-78
2022/01/10 00:56:19;;;;;;;3.22;2.30;;;2.10;99.90;;;;;;5073064;28;20229;-79
2022/01/10 00:58:47;;;;;;;1.40;0.77;;;2.10;99.90;;;;;;5072401;28;20205;-79
2022/01/10 01:01:13;;;;;;;0.80;0.80;;;2.10;99.90;;;;;;5075796;28;20206;-78
2022/01/10 01:03:41;;;;;;;2.25;0.68;;;2.10;99.90;;;;;;5075438;28;20552;-78
2022/01/10 01:06:10;;;;;;;1.08;1.08;;;2.20;99.90;;;;;;5075493;28;20300;-79
2022/01/10 01:08:38;;;;;;;0.75;0.75;;;2.10;99.90;;;;;;5075687;28;20221;-78
2022/01/10 01:11:52;;;;;;;0.57;0.57;;;2.10;99.90;;;;;;5073810;28;20190;-79
2022/01/10 01:14:26;;;;;;;1.25;1.25;;;2.10;99.90;;;;;;5075245;28;20194;-79
2022/01/10 01:17:09;;;;;;;0.50;0.50;;;2.00;99.90;;;;;;5076928;28;20209;-79
2022/01/10 01:25:20;;;;;;;0.55;0.55;;;1.90;99.90;;;;;;4993462;28;20247;-79
2022/01/10 01:27:50;;;;;;;1.77;1.67;;;2.00;99.90;;;;;;4993648;28;20207;-79
2022/01/10 01:30:17;;;;;;;1.13;0.85;;;2.00;99.90;;;;;;4993963;28;20203;-79
2022/01/10 01:32:43;;;;;;;0.80;0.80;;;2.00;99.90;;;;;;4994485;28;20208;-79
2022/01/10 01:35:11;;;;;;;1.05;0.95;;;2.00;99.90;;;;;;4991672;28;20219;-79
2022/01/10 01:37:38;;;;;;;1.33;0.88;;;2.00;99.90;;;;;;4990813;28;20201;-79
2022/01/10 01:40:08;;;;;;;1.63;1.52;;;1.90;99.90;;;;;;4992565;28;20607;-79
2022/01/10 01:42:39;;;;;;;1.38;1.38;;;1.90;99.90;;;;;;4993745;28;20347;-79
2022/01/10 01:45:08;;;;;;;25.60;23.17;;;2.00;99.90;;;;;;4993225;28;20230;-79
2022/01/10 01:47:35;;;;;;;2.58;1.35;;;1.90;99.90;;;;;;4993657;28;20206;-78
2022/01/10 01:50:03;;;;;;;1.98;1.88;;;1.90;99.90;;;;;;4993458;28;20197;-79
2022/01/10 01:52:30;;;;;;;6.20;3.47;;;1.90;99.90;;;;;;4998888;28;20203;-78
2022/01/10 01:54:57;;;;;;;2.30;2.30;;;1.80;99.90;;;;;;5074541;28;20240;-79
2022/01/10 01:57:24;;;;;;;1.10;1.10;;;1.90;99.90;;;;;;5074890;28;20198;-79
2022/01/10 01:59:52;;;;;;;3.35;1.95;;;1.90;99.90;;;;;;5074059;28;20209;-79
2022/01/10 02:02:20;;;;;;;2.35;2.20;;;1.90;99.90;;;;;;5074727;28;20202;-79
2022/01/10 02:04:46;;;;;;;4.35;2.03;;;1.90;99.90;;;;;;5074187;28;20217;-79
2022/01/10 02:07:13;;;;;;;2.97;2.70;;;1.90;99.90;;;;;;5075422;28;20561;-79
2022/01/10 02:09:40;;;;;;;1.83;1.73;;;1.90;99.90;;;;;;5074331;28;20571;-80
2022/01/10 02:12:07;;;;;;;0.40;0.40;;;1.90;99.90;;;;;;5074867;28;20197;-79
2022/01/10 02:14:34;;;;;;;4.55;1.15;;;1.80;99.90;;;;;;5075893;28;20190;-79
2022/01/10 02:17:05;;;;;;;1.40;1.30;;;1.80;99.90;;;;;;5075017;28;20206;-78
2022/01/10 02:19:32;;;;;;;3.70;1.77;;;1.80;99.90;;;;;;5074028;28;20220;-78
2022/01/10 02:22:00;;;;;;;1.85;1.58;;;1.80;99.90;;;;;;5073778;28;20197;-79
2022/01/10 02:24:26;;;;;;;2.92;2.72;;;1.90;99.90;;;;;;5073898;28;20217;-79
2022/01/10 02:26:53;;;;;;;1.50;1.40;;;1.90;99.90;;;;;;5073340;28;20190;-79
2022/01/10 02:29:20;;;;;;;2.45;0.90;;;1.90;99.90;;;;;;5072284;28;20207;-78
2022/01/10 02:31:47;;;;;;;7.30;4.65;;;1.80;99.90;;;;;;5074015;28;20201;-78
2022/01/10 02:34:18;;;;;;;2.65;2.55;;;1.90;99.90;;;;;;5075049;28;20202;-79
2022/01/10 02:36:45;;;;;;;0.50;0.50;;;1.90;99.90;;;;;;5075634;28;20586;-78
2022/01/10 02:39:19;;;;;;;4.22;1.48;;;1.80;99.90;;;;;;5074580;28;20203;-78
2022/01/10 02:41:46;;;;;;;2.30;2.10;;;1.80;99.90;;;;;;5075215;28;20216;-79
2022/01/10 02:44:16;;;;;;;11.75;3.00;;;1.80;99.90;;;;;;5074571;28;20209;-79
2022/01/10 02:46:44;;;;;;;0.40;0.40;;;1.80;99.90;;;;;;5075081;28;20214;-79
2022/01/10 02:49:12;;;;;;;3.78;3.58;;;1.70;99.90;;;;;;5075735;28;20569;-79
2022/01/10 02:51:39;;;;;;;0.77;0.77;;;1.60;99.90;;;;;;5075339;28;20217;-78
2022/01/10 02:54:07;;;;;;;0.50;0.40;;;1.60;99.90;;;;;;5075851;28;20205;-79
2022/01/10 02:56:35;;;;;;;0.40;0.40;;;1.60;99.90;;;;;;5076450;28;20313;-79
2022/01/10 02:59:02;;;;;;;0.50;0.40;;;1.60;99.90;;;;;;5074556;28;20204;-79
2022/01/10 03:01:29;;;;;;;0.40;0.40;;;1.50;99.90;;;;;;5077130;28;20194;-79
2022/01/10 03:03:55;;;;;;;0.40;0.40;;;1.40;99.90;;;;;;5076195;28;20190;-79
2022/01/10 03:06:22;;;;;;;0.45;0.45;;;1.40;99.90;;;;;;5076903;28;20224;-79
2022/01/10 03:08:49;;;;;;;7.13;3.92;;;1.40;99.90;;;;;;5074333;28;20196;-78
2022/01/10 03:11:15;;;;;;;0.43;0.43;;;1.50;99.90;;;;;;5071188;28;20695;-79
2022/01/10 03:13:43;;;;;;;1.27;1.20;;;1.50;99.90;;;;;;5070965;28;20197;-75
2022/01/10 03:16:10;;;;;;;1.23;0.70;;;1.50;99.90;;;;;;5072958;28;20221;-79
2022/01/10 03:21:10;;;;;;;2.25;1.50;;;1.50;99.90;;;;;;5085110;28;20216;-80
2022/01/10 03:23:36;;;;;;;0.40;0.40;;;1.50;99.90;;;;;;5088958;28;20578;-81
2022/01/10 03:26:03;;;;;;;0.90;0.60;;;1.50;99.90;;;;;;5098446;28;20213;-81
2022/01/10 03:28:30;;;;;;;0.88;0.88;;;1.50;99.90;;;;;;5098893;28;20200;-81
2022/01/10 03:30:58;;;;;;;1.50;1.50;;;1.60;99.90;;;;;;5118518;28;20692;-81
2022/01/10 03:33:25;;;;;;;0.45;0.45;;;1.60;99.90;;;;;;5118845;28;20199;-80
2022/01/10 03:35:52;;;;;;;1.30;1.20;;;1.50;99.90;;;;;;5118412;28;20193;-80
2022/01/10 03:38:19;;;;;;;2.58;2.45;;;1.50;99.90;;;;;;5119076;28;20202;-80
2022/01/10 03:40:45;;;;;;;4.05;1.50;;;1.50;99.90;;;;;;5118713;28;20250;-82
2022/01/10 03:43:12;;;;;;;20.98;1.38;;;1.60;99.90;;;;;;5119016;28;20195;-81
2022/01/10 03:45:39;;;;;;;0.50;0.50;;;1.60;99.90;;;;;;5119639;28;20209;-80
2022/01/10 03:48:07;;;;;;;3.05;2.95;;;1.60;99.90;;;;;;5120211;28;20203;-80
2022/01/10 03:50:34;;;;;;;5.85;2.40;;;1.60;99.90;;;;;;5117895;28;20223;-80
2022/01/10 03:53:01;;;;;;;1.20;1.17;;;1.60;99.90;;;;;;5118067;28;20203;-81
2022/01/10 03:55:28;;;;;;;1.38;1.27;;;1.60;99.90;;;;;;5118208;28;20200;-80
2022/01/10 03:57:54;;;;;;;1.67;1.08;;;1.60;99.90;;;;;;5118722;28;20192;-81
2022/01/10 04:00:21;;;;;;;5.75;5.20;;;1.60;99.90;;;;;;5117616;28;20731;-81
2022/01/10 04:02:54;;;;;;;5.57;3.47;;;1.70;99.90;;;;;;5124029;28;20193;-81
2022/01/10 04:05:22;;;;;;;0.95;0.95;;;1.60;99.90;;;;;;5125691;28;20287;-79
2022/01/10 04:07:49;;;;;;;0.90;0.88;;;1.60;99.90;;;;;;5121841;28;20207;-80
2022/01/10 04:10:16;;;;;;;1.08;0.95;;;1.50;99.90;;;;;;5117635;28;20222;-81
2022/01/10 04:12:42;;;;;;;1.13;1.05;;;1.50;99.90;;;;;;5117392;28;20193;-80
2022/01/10 04:15:10;;;;;;;7.38;2.00;;;1.50;99.90;;;;;;5119638;28;20562;-79
2022/01/10 04:17:37;;;;;;;2.60;2.40;;;1.40;99.90;;;;;;5119588;28;20195;-80
2022/01/10 04:20:05;;;;;;;2.40;2.25;;;1.50;99.90;;;;;;5119403;28;20743;-80
2022/01/10 04:22:33;;;;;;;0.50;0.50;;;1.50;99.90;;;;;;5120134;28;20214;-79
2022/01/10 04:25:00;;;;;;;4.13;2.80;;;1.50;99.90;;;;;;5122742;28;20215;-79
2022/01/10 04:27:31;;;;;;;0.82;0.82;;;1.50;99.90;;;;;;5120329;28;20207;-79
2022/01/10 04:29:58;;;;;;;1.67;1.67;;;1.60;99.90;;;;;;5120634;28;20216;-79
2022/01/10 04:32:27;;;;;;;0.40;0.40;;;1.60;99.90;;;;;;5121460;28;20210;-80
2022/01/10 04:34:53;;;;;;;1.10;1.10;;;1.60;99.90;;;;;;5119523;28;20196;-80
2022/01/10 04:37:20;;;;;;;1.05;1.05;;;1.60;99.90;;;;;;5118099;28;20195;-78
2022/01/10 04:39:48;;;;;;;4.90;2.67;;;1.60;99.90;;;;;;5117310;28;20216;-80
2022/01/10 04:42:15;;;;;;;0.60;0.60;;;1.60;99.90;;;;;;5117556;28;20523;-80
2022/01/10 04:44:42;;;;;;;0.70;0.60;;;1.60;99.90;;;;;;5117231;28;20218;-80
2022/01/10 04:47:09;;;;;;;4.60;2.05;;;1.60;99.90;;;;;;5117880;28;20196;-80
2022/01/10 04:49:58;;;;;;;1.30;1.30;;;1.60;99.90;;;;;;5116740;28;20215;-80
2022/01/10 04:52:23;;;;;;;0.40;0.40;;;1.50;99.90;;;;;;5117824;28;20278;-79
2022/01/10 04:54:51;;;;;;;0.40;0.40;;;1.30;99.90;;;;;;5118372;28;20192;-80
2022/01/10 04:57:18;;;;;;;0.50;0.40;;;1.30;99.90;;;;;;5117544;28;20189;-80
2022/01/10 04:59:44;;;;;;;0.60;0.60;;;1.30;99.90;;;;;;5117523;28;20212;-80
2022/01/10 05:02:11;;;;;;;0.55;0.55;;;1.30;99.90;;;;;;5118379;28;20192;-80
2022/01/10 05:04:38;;;;;;;0.70;0.70;;;1.30;99.90;;;;;;5116817;28;20674;-81
2022/01/10 05:07:05;;;;;;;1.40;0.82;;;1.20;99.90;;;;;;5117241;28;20266;-79
2022/01/10 05:09:32;;;;;;;0.40;0.40;;;1.30;99.90;;;;;;5116768;28;20231;-78
2022/01/10 05:12:00;;;;;;;1.55;1.45;;;1.20;99.90;;;;;;5116908;28;20189;-79
2022/01/10 05:14:27;;;;;;;0.70;0.70;;;1.10;99.90;;;;;;5117786;28;20559;-80
2022/01/10 05:16:53;;;;;;;2.00;1.95;;;1.10;99.90;;;;;;5117961;28;20207;-80
2022/01/10 05:19:20;;;;;;;1.77;1.77;;;1.20;99.90;;;;;;5117087;28;20220;-80
2022/01/10 05:21:47;;;;;;;0.40;0.40;;;1.30;99.90;;;;;;5118225;28;20195;-80
2022/01/10 05:24:14;;;;;;;0.52;0.52;;;1.40;99.90;;;;;;5116661;28;20208;-78
2022/01/10 05:26:40;;;;;;;0.60;0.60;;;1.50;99.90;;;;;;5116952;28;20220;-80
2022/01/10 05:29:08;;;;;;;0.40;0.40;;;1.50;99.90;;;;;;5116878;28;20227;-80
2022/01/10 05:31:35;;;;;;;0.40;0.40;;;1.60;99.90;;;;;;5120968;28;20193;-81
2022/01/10 05:34:03;;;;;;;0.55;0.55;;;1.50;99.90;;;;;;5134667;28;20180;-81
2022/01/10 05:36:29;;;;;;;1.38;1.38;;;1.60;99.90;;;;;;5116535;28;20661;-79
2022/01/10 05:38:57;;;;;;;0.50;0.40;;;1.60;99.90;;;;;;5115882;28;20223;-80
2022/01/10 05:41:24;;;;;;;1.55;1.48;;;1.60;99.90;;;;;;5116585;28;20219;-78
2022/01/10 05:43:51;;;;;;;0.40;0.40;;;1.60;99.90;;;;;;5116009;28;20203;-80
2022/01/10 05:46:20;;;;;;;47.55;18.58;;;1.70;99.90;;;;;;5115761;28;20211;-79
2022/01/10 05:48:49;;;;;;;0.45;0.45;;;1.70;99.90;;;;;;5115643;28;20241;-79
2022/01/10 05:51:16;;;;;;;0.40;0.40;;;1.70;99.90;;;;;;5116921;28;20193;-79
2022/01/10 05:53:43;;;;;;;1.30;1.02;;;1.60;99.90;;;;;;5116677;28;20550;-80
2022/01/10 05:56:10;;;;;;;3.72;3.40;;;1.70;99.90;;;;;;5115523;28;20192;-80
2022/01/10 05:58:37;;;;;;;4.45;4.05;;;1.70;99.90;;;;;;5115725;28;20192;-79
2022/01/10 06:01:03;;;;;;;3.25;3.05;;;1.80;99.90;;;;;;5115143;28;20207;-78
2022/01/10 06:03:32;;;;;;;1.80;1.70;;;1.80;99.90;;;;;;5116289;28;20668;-80
2022/01/10 06:05:58;;;;;;;5.85;2.75;;;1.80;99.90;;;;;;5115605;28;20223;-78
2022/01/10 06:08:25;;;;;;;4.65;2.53;;;1.80;99.90;;;;;;5116078;28;20197;-79
2022/01/10 06:10:52;;;;;;;4.40;3.95;;;1.80;99.90;;;;;;5115812;28;20212;-79
2022/01/10 06:13:19;;;;;;;2.30;1.67;;;1.80;99.90;;;;;;5115746;28;20208;-80
2022/01/10 06:15:46;;;;;;;0.70;0.70;;;1.80;99.90;;;;;;5115431;28;20199;-79
2022/01/10 06:18:13;;;;;;;11.13;6.22;;;1.80;99.90;;;;;;5116454;28;20204;-79
2022/01/10 06:20:41;;;;;;;9.02;8.30;;;1.80;99.90;;;;;;5115413;28;20221;-80
2022/01/10 06:23:09;;;;;;;2.20;1.60;;;1.80;99.90;;;;;;5115924;28;20192;-80
2022/01/10 06:25:36;;;;;;;2.65;2.55;;;1.90;99.90;;;;;;5115552;28;20692;-80
2022/01/10 06:28:03;;;;;;;3.55;3.08;;;1.90;99.90;;;;;;5116320;28;20688;-79
2022/01/10 06:30:30;;;;;;;1.27;1.25;;;2.00;99.90;;;;;;5115485;28;20559;-79
2022/01/10 06:32:57;;;;;;;2.90;1.95;;;2.00;99.90;;;;;;5115095;28;20233;-79
2022/01/10 06:35:24;;;;;;;0.57;0.57;;;2.00;99.90;;;;;;5116511;28;20195;-80
2022/01/10 06:37:53;;;;;;;1.77;1.67;;;2.00;99.90;;;;;;5116330;28;20202;-79
2022/01/10 06:40:20;;;;;;;2.45;2.35;;;2.00;99.90;;;;;;5115654;28;20222;-79
2022/01/10 06:42:47;;;;;;;1.88;1.60;;;1.90;99.90;;;;;;5116570;28;20196;-80
2022/01/10 06:45:14;;;;;;;6.13;5.05;;;1.90;99.90;;;;;;5116466;28;20200;-80
2022/01/10 06:47:42;;;;;;;8.88;4.90;;;2.00;99.90;;;;;;5115505;28;20217;-79
2022/01/10 06:50:10;;;;;;;1.05;1.05;;;2.00;99.90;;;;;;5115346;28;20215;-80
2022/01/10 06:52:36;;;;;;;3.60;3.42;;;2.00;99.90;;;;;;5119544;28;20258;-79
2022/01/10 06:55:05;;;;;;;6.80;3.60;;;2.00;99.90;;;;;;5120061;28;20196;-80
2022/01/10 06:57:32;;;;;;;2.60;2.50;;;1.90;99.90;;;;;;5120272;28;20195;-80
2022/01/10 07:00:01;;;;;;;1.77;1.67;;;2.00;99.90;;;;;;5118932;28;20211;-79
2022/01/10 07:02:28;;;;;;;3.05;2.53;;;2.00;99.90;;;;;;5119054;28;20206;-79
2022/01/10 07:04:55;;;;;;;5.72;4.05;;;1.90;99.90;;;;;;5119359;28;20280;-75
2022/01/10 07:07:21;;;;;;;3.92;3.75;;;1.90;99.90;;;;;;5118608;28;20700;-79
2022/01/10 07:09:48;;;;;;;4.95;2.78;;;1.90;99.90;;;;;;5117796;28;20219;-80
2022/01/10 07:12:16;;;;;;;0.50;0.50;;;1.90;99.90;;;;;;5118274;28;20200;-79
2022/01/10 07:14:43;;;;;;;1.60;1.50;;;1.90;99.90;;;;;;5118968;28;20680;-79
2022/01/10 07:17:10;;;;;;;0.93;0.93;;;1.90;99.90;;;;;;5118649;28;20196;-79
2022/01/10 07:19:37;;;;;;;1.38;1.30;;;1.90;99.90;;;;;;5118389;28;20228;-81
2022/01/10 07:22:05;;;;;;;1.23;1.00;;;1.80;99.90;;;;;;5118961;28;20199;-81
2022/01/10 07:24:32;;;;;;;0.93;0.93;;;1.70;99.90;;;;;;5119739;28;20218;-81
2022/01/10 07:26:59;;;;;;;3.22;2.17;;;1.80;99.90;;;;;;5119195;28;20217;-79
2022/01/10 07:29:27;;;;;;;3.92;3.53;;;1.80;99.90;;;;;;5118378;28;20212;-80
2022/01/10 07:31:53;;;;;;;2.45;2.28;;;1.80;99.90;;;;;;5118771;28;20370;-80
2022/01/10 07:34:20;;;;;;;0.50;0.50;;;1.80;99.90;;;;;;5118938;28;20204;-80
2022/01/10 07:36:47;;;;;;;0.50;0.50;;;1.80;99.90;;;;;;5117780;28;20197;-81
2022/01/10 07:39:14;;;;;;;4.97;3.38;;;1.70;99.90;;;;;;5116932;28;20223;-80
2022/01/10 07:41:40;;;;;;;0.40;0.40;;;1.70;99.90;;;;;;5117011;28;20695;-79
2022/01/10 07:44:08;;;;;;;0.68;0.68;;;1.70;99.90;;;;;;5117458;28;20668;-82
2022/01/10 07:46:36;;;;;;;3.53;3.33;;;1.70;99.90;;;;;;5109128;28;20222;-81
2022/01/10 07:49:03;;;;;;;5.38;1.40;;;1.70;99.90;;;;;;5096873;28;20228;-81
2022/01/10 07:51:30;;;;;;;2.65;2.35;;;1.70;99.90;;;;;;5097785;28;20559;-78
2022/01/10 07:53:57;;;;;;;1.65;1.58;;;1.70;99.90;;;;;;5097536;28;20193;-80
2022/01/10 07:56:24;;;;;;;3.72;1.25;;;1.70;99.90;;;;;;5100069;28;20200;-81
2022/01/10 07:58:52;;;;;;;0.68;0.68;;;1.70;99.90;;;;;;5104652;28;20566;-79
2022/01/10 08:01:20;;;;;;;5.90;2.22;;;1.70;99.90;;;;;;5096390;28;20230;-79
2022/01/10 08:03:49;;;;;;;0.57;0.57;;;1.80;99.90;;;;;;5096149;28;20201;-81
2022/01/10 08:06:16;;;;;;;1.25;1.15;;;1.80;99.90;;;;;;5096791;28;20223;-80
2022/01/10 08:08:43;;;;;;;24.63;5.95;;;1.80;99.90;;;;;;5097678;28;20194;-81
2022/01/10 08:11:10;;;;;;;0.70;0.70;;;1.80;99.90;;;;;;5097696;28;20196;-79
2022/01/10 08:13:37;;;;;;;1.40;1.40;;;1.80;99.90;;;;;;5096935;28;20196;-79
2022/01/10 08:16:04;;;;;;;1.85;1.75;;;1.80;99.90;;;;;;5096759;28;20559;-81
2022/01/10 08:18:33;;;;;;;0.40;0.40;;;1.80;99.90;;;;;;5097872;28;20717;-79
2022/01/10 08:21:01;;;;;;;0.40;0.40;;;1.80;99.90;;;;;;5097261;28;20220;-80
2022/01/10 08:23:28;;;;;;;0.75;0.75;;;1.90;99.90;;;;;;5098321;28;20200;-80
2022/01/10 08:25:55;;;;;;;3.63;1.02;;;2.00;99.90;;;;;;5097776;28;20212;-80
2022/01/10 08:28:22;;;;;;;0.85;0.85;;;2.20;99.90;;;;;;5097000;28;20193;-81
2022/01/10 08:30:50;;;;;;;3.03;1.63;;;2.30;99.90;;;;;;5096184;28;20341;-80
2022/01/10 08:33:16;;;;;;;2.92;2.67;;;2.40;99.90;;;;;;5097317;28;20196;-81
2022/01/10 08:35:43;;;;;;;2.40;2.03;;;2.50;99.90;;;;;;5096293;28;20201;-80
2022/01/10 08:38:11;;;;;;;6.15;2.72;;;2.70;99.90;;;;;;5096952;28;20204;-80
2022/01/10 08:40:38;;;;;;;4.82;4.40;;;2.70;99.90;;;;;;5095935;28;20225;-80
2022/01/10 08:43:10;;;;;;;2.50;2.33;;;2.80;99.90;;;;;;5096484;28;20204;-80
2022/01/10 08:45:37;;;;;;;3.28;3.08;;;2.90;99.90;;;;;;5096370;28;20177;-80
2022/01/10 08:48:04;;;;;;;1.92;1.48;;;2.90;99.90;;;;;;5095917;28;20205;-80
2022/01/10 08:50:33;;;;;;;1.60;1.35;;;3.00;99.90;;;;;;5098054;28;20426;-79
2022/01/10 08:53:00;;;;;;;3.13;2.85;;;3.00;99.90;;;;;;5097166;28;20198;-80
2022/01/10 08:55:28;;;;;;;9.50;3.40;;;3.00;99.90;;;;;;5097779;28;20198;-80
2022/01/10 08:57:55;;;;;;;5.13;4.05;;;3.10;99.90;;;;;;5103787;28;20703;-80
2022/01/10 09:00:22;;;;;;;2.50;2.40;;;3.20;99.90;;;;;;5104124;28;20244;-80
2022/01/10 09:02:48;;;;;;;1.75;1.50;;;3.50;99.90;;;;;;5106510;28;20198;-77
2022/01/10 09:05:15;;;;;;;0.75;0.75;;;4.00;99.90;;;;;;5105891;28;20197;-81
2022/01/10 09:07:42;;;;;;;3.63;3.30;;;4.20;99.90;;;;;;5107388;28;20225;-80
2022/01/10 09:10:09;;;;;;;1.60;1.40;;;4.50;99.90;;;;;;5106922;28;20217;-82
2022/01/10 09:12:38;;;;;;;0.50;0.40;;;4.80;99.90;;;;;;5110724;28;20193;-82
2022/01/10 09:15:05;;;;;;;0.50;0.47;;;5.40;99.90;;;;;;5111754;28;20668;-82
2022/01/10 09:17:32;;;;;;;5.60;2.15;;;6.20;99.90;;;;;;5112811;28;20254;-81
2022/01/10 09:19:59;;;;;;;2.53;2.38;;;6.70;99.90;;;;;;5111409;28;20229;-81
2022/01/10 09:22:26;;;;;;;4.53;4.22;;;7.00;99.90;;;;;;5112657;28;20182;-82
2022/01/10 09:24:53;;;;;;;2.15;1.30;;;7.00;99.90;;;;;;5110997;28;20197;-81
2022/01/10 09:27:19;;;;;;;7.07;2.47;;;6.70;99.90;;;;;;5104998;28;20210;-81
2022/01/10 09:29:49;;;;;;;1.90;1.80;;;6.90;99.90;;;;;;5098497;28;20224;-81
2022/01/10 09:32:16;;;;;;;0.60;0.60;;;6.80;99.90;;;;;;5096214;28;20562;-80
2022/01/10 09:34:43;;;;;;;0.75;0.75;;;6.20;99.90;;;;;;5096227;28;20198;-81
2022/01/10 09:37:10;;;;;;;1.50;1.40;;;6.10;99.90;;;;;;5095632;28;20196;-80
2022/01/10 09:39:37;;;;;;;2.40;0.90;;;6.10;99.90;;;;;;5096207;28;20214;-79
2022/01/10 09:42:05;;;;;;;1.73;0.88;;;6.20;99.90;;;;;;5096466;28;20197;-81
2022/01/10 09:44:34;;;;;;;0.60;0.57;;;6.10;99.90;;;;;;5106115;28;20190;-82
2022/01/10 09:47:02;;;;;;;7.18;4.35;;;6.20;99.90;;;;;;5115759;28;20202;-82
2022/01/10 09:49:28;;;;;;;0.50;0.50;;;6.30;99.90;;;;;;5113401;28;20276;-79
2022/01/10 09:51:55;;;;;;;2.15;2.03;;;6.10;99.90;;;;;;5114193;28;20199;-84
2022/01/10 09:54:22;;;;;;;2.38;2.25;;;6.10;99.90;;;;;;5115364;28;20208;-81
2022/01/10 09:56:49;;;;;;;2.65;1.70;;;6.00;99.90;;;;;;5113657;28;20190;-82
2022/01/10 09:59:16;;;;;;;0.90;0.90;;;5.80;99.90;;;;;;5112790;28;20197;-82
2022/01/10 10:01:44;;;;;;;2.25;1.95;;;5.90;99.90;;;;;;5112147;28;20208;-81
2022/01/10 10:04:13;;;;;;;0.77;0.77;;;5.90;99.90;;;;;;5112763;28;20612;-81
2022/01/10 10:06:41;;;;;;;0.80;0.80;;;5.70;99.90;;;;;;5106886;28;20694;-80
2022/01/10 10:09:09;;;;;;;3.28;3.08;;;5.80;99.90;;;;;;5106123;28;20224;-80
2022/01/10 10:11:41;;;;;;;1.83;1.73;;;5.70;99.90;;;;;;5095915;28;20197;-80
2022/01/10 10:14:10;;;;;;;0.50;0.40;;;5.90;99.90;;;;;;5095021;28;20194;-80
2022/01/10 10:16:39;;;;;;;0.60;0.60;;;6.00;99.90;;;;;;5096063;28;20228;-80
2022/01/10 10:19:06;;;;;;;1.50;1.42;;;6.10;99.90;;;;;;5094842;28;20232;-80
2022/01/10 10:21:35;;;;;;;4.63;4.15;;;6.20;99.90;;;;;;5095268;28;20178;-81
2022/01/10 10:24:04;;;;;;;4.63;3.53;;;6.10;99.90;;;;;;5095645;28;20661;-80
2022/01/10 10:26:33;;;;;;;11.15;2.20;;;6.00;99.90;;;;;;5094363;28;20213;-80
2022/01/10 10:29:00;;;;;;;2.75;2.55;;;6.10;99.90;;;;;;5095003;28;20220;-79
2022/01/10 10:31:29;;;;;;;1.13;0.90;;;6.20;99.90;;;;;;5094672;28;20204;-80
2022/01/10 10:33:58;;;;;;;2.67;1.70;;;5.90;99.90;;;;;;5094713;28;20570;-81
2022/01/10 10:36:26;;;;;;;1.10;1.10;;;5.80;99.90;;;;;;5095779;28;20201;-80
2022/01/10 10:38:56;;;;;;;3.50;1.42;;;6.00;99.90;;;;;;5095071;28;20285;-81
2022/01/10 10:41:23;;;;;;;1.98;0.75;;;6.10;99.90;;;;;;5094959;28;20205;-80
2022/01/10 10:43:51;;;;;;;1.48;1.38;;;6.30;99.90;;;;;;5094619;28;20206;-81
2022/01/10 10:46:20;;;;;;;1.90;1.80;;;6.60;99.90;;;;;;5094500;28;20203;-81
2022/01/10 10:48:50;;;;;;;0.85;0.85;;;6.60;99.90;;;;;;5094513;28;20578;-79
2022/01/10 10:51:17;;;;;;;2.88;2.63;;;6.80;99.90;;;;;;5094820;28;20185;-81
2022/01/10 10:53:44;;;;;;;2.30;2.15;;;7.10;99.90;;;;;;5094439;28;20192;-80
2022/01/10 10:56:15;;;;;;;1.00;1.00;;;7.10;99.90;;;;;;5093634;28;20307;-80
2022/01/10 10:58:41;;;;;;;0.95;0.95;;;7.10;99.90;;;;;;5094951;28;20203;-79
2022/01/10 11:01:09;;;;;;;0.50;0.40;;;7.40;99.90;;;;;;5094321;28;20200;-80
2022/01/10 11:03:36;;;;;;;0.50;0.50;;;7.90;99.90;;;;;;5094551;28;20197;-81
2022/01/10 11:06:05;;;;;;;1.65;1.58;;;8.20;99.90;;;;;;5094569;28;20197;-80
2022/01/10 11:08:33;;;;;;;1.80;1.70;;;8.30;99.90;;;;;;5093909;28;20578;-81
2022/01/10 11:11:00;;;;;;;0.60;0.60;;;8.20;99.90;;;;;;5093551;28;20220;-80
2022/01/10 11:13:30;;;;;;;3.75;3.55;;;8.20;99.90;;;;;;5094687;28;20196;-81
2022/01/10 11:15:58;;;;;;;8.77;1.38;;;8.20;99.90;;;;;;5094242;28;20211;-77
2022/01/10 11:18:25;;;;;;;1.75;1.63;;;8.10;99.90;;;;;;5094073;28;20196;-81
2022/01/10 11:20:55;;;;;;;0.50;0.40;;;8.10;99.90;;;;;;5093727;28;20224;-80
2022/01/10 11:23:23;;;;;;;4.35;2.30;;;8.10;99.90;;;;;;5093915;28;20231;-81
2022/01/10 11:25:50;;;;;;;3.20;3.00;;;8.20;99.90;;;;;;5094799;28;20259;-81
2022/01/10 11:28:23;;;;;;;0.50;0.40;;;8.10;99.90;;;;;;5094456;28;20223;-81
2022/01/10 11:30:53;;;;;;;1.10;0.70;;;7.90;99.90;;;;;;5094645;28;20785;-80
2022/01/10 11:33:21;;;;;;;3.83;1.23;;;8.10;99.90;;;;;;5093079;28;20284;-81
2022/01/10 11:35:51;;;;;;;0.60;0.50;;;8.10;99.90;;;;;;5094683;28;20276;-81
2022/01/10 11:38:30;;;;;;;0.70;0.70;;;8.00;99.90;;;;;;5098087;28;20196;-80
2022/01/10 11:40:59;;;;;;;1.73;1.60;;;7.90;99.90;;;;;;5097897;28;20224;-81
2022/01/10 11:43:40;;;;;;;0.50;0.40;;;7.80;99.90;;;;;;5098031;28;20566;-80
2022/01/10 11:46:11;;;;;;;0.65;0.65;;;7.90;99.90;;;;;;5097868;28;20200;-82
2022/01/10 11:48:50;;;;;;;0.90;0.90;;;8.20;99.90;;;;;;5097731;28;20201;-77
2022/01/10 11:51:19;;;;;;;0.50;0.40;;;8.70;99.90;;;;;;5097900;28;20543;-81
2022/01/10 11:53:48;;;;;;;0.90;0.73;;;8.60;99.90;;;;;;5097133;28;20200;-81
2022/01/10 11:56:28;;;;;;;2.22;2.13;;;8.50;99.90;;;;;;5097860;28;20207;-80
2022/01/10 11:59:22;;;;;;;0.65;0.63;;;8.30;99.90;;;;;;5097240;28;20196;-80
2022/01/10 12:01:57;;;;;;;2.47;1.55;;;8.20;99.90;;;;;;5097876;28;20192;-80
2022/01/10 12:04:25;;;;;;;0.50;0.50;;;8.30;99.90;;;;;;5097196;28;20249;-80
2022/01/10 12:06:52;;;;;;;2.25;2.05;;;8.60;99.90;;;;;;5097842;28;20210;-80
2022/01/10 12:09:19;;;;;;;0.50;0.40;;;9.00;99.90;;;;;;5096921;28;20271;-82
2022/01/10 12:11:48;;;;;;;0.50;0.50;;;9.20;99.90;;;;;;5097246;28;20197;-76
2022/01/10 12:14:15;;;;;;;0.50;0.50;;;9.60;99.90;;;;;;5098208;28;20203;-81
2022/01/10 12:16:42;;;;;;;0.50;0.40;;;9.90;99.90;;;;;;5097120;28;20200;-80
2022/01/10 12:19:11;;;;;;;0.50;0.40;;;10.10;99.90;;;;;;5096856;28;20717;-80
2022/01/10 12:21:39;;;;;;;0.50;0.40;;;10.10;99.90;;;;;;5096831;28;20185;-80
2022/01/10 12:24:07;;;;;;;0.50;0.40;;;10.10;99.90;;;;;;5102830;28;20197;-81
2022/01/10 12:26:34;;;;;;;1.33;0.90;;;9.90;99.90;;;;;;5097662;28;20193;-81
2022/01/10 12:29:03;;;;;;;1.70;1.60;;;9.60;99.90;;;;;;5097421;28;20563;-79
2022/01/10 12:31:32;;;;;;;0.50;0.40;;;9.20;99.90;;;;;;5096979;28;20228;-81
2022/01/10 12:34:00;;;;;;;0.50;0.40;;;9.20;99.90;;;;;;5098288;28;20193;-80
2022/01/10 12:36:30;;;;;;;1.38;1.38;;;9.30;99.90;;;;;;5097780;28;20207;-80
2022/01/10 12:38:59;;;;;;;1.10;1.10;;;9.30;99.90;;;;;;5096788;28;20208;-79
2022/01/10 12:41:26;;;;;;;0.50;0.40;;;9.00;99.90;;;;;;5097913;28;20201;-81
2022/01/10 12:43:53;;;;;;;0.50;0.40;;;8.70;99.90;;;;;;5096628;28;20200;-78
2022/01/10 12:46:22;;;;;;;0.50;0.40;;;8.60;99.90;;;;;;5097832;28;20665;-79
2022/01/10 12:48:51;;;;;;;2.95;1.15;;;8.50;99.90;;;;;;5096792;28;20219;-78
2022/01/10 12:51:20;;;;;;;3.58;1.15;;;8.40;99.90;;;;;;5096268;28;20301;-81
2022/01/10 12:53:51;;;;;;;0.50;0.40;;;8.20;99.90;;;;;;5097360;28;20192;-80
2022/01/10 12:56:19;;;;;;;0.50;0.40;;;8.10;99.90;;;;;;5096769;28;20231;-82
2022/01/10 12:58:46;;;;;;;0.50;0.40;;;8.30;99.90;;;;;;5097528;28;20197;-82
2022/01/10 13:01:15;;;;;;;0.50;0.40;;;8.70;99.90;;;;;;5097034;28;20193;-81
2022/01/10 13:03:48;;;;;;;0.85;0.85;;;9.00;99.90;;;;;;5097500;28;20204;-80
2022/01/10 13:06:15;;;;;;;5.80;3.47;;;9.20;99.90;;;;;;5096823;28;20177;-80
2022/01/10 13:08:42;;;;;;;2.08;1.98;;;9.00;99.90;;;;;;5097714;28;20224;-78
2022/01/10 13:11:14;;;;;;;2.22;1.85;;;8.80;99.90;;;;;;5099978;28;20207;-80